Donalsonville, Georgia
Current Conditions -  °F | °C
As of 11:55 AM on Thursday 27 Nov 2014 (Local Time) from KBGE Reporting Station
Clear Clear  
Wind Chill: 59°   Ceiling: Unl
Heat Index: 59°   Visibility: 10mi
Dew Point: 37°   Wind: 13mph
Humidity: 45%   Direction: 310°NW
Pressure: 30.32"   Gusts: NA
Location:  31.04°N, 84.88°W
Report Text: KBGE 271655Z AUTO 31011KT 10SM CLR 15/03 A3032 RMK AO2
Loading
Personal Weather Stations






























Interactive Weather Map New forecast layout! Learn more

10-Day Weather Forecast

Advertisements
Track Severe Weather on mobile